Time;durP1;ratioP1;P1;durP2;ratioP2;P2;SDS_P1;SDS_P2;PMS_P1;PMS_P2;Temp;Humidity;BMP_temperature;BMP_pressure;BME280_temperature;BME280_humidity;BME280_pressure;Samples;Min_cycle;Max_cycle;Signal;HPM_P1;HPM_P2
2023/10/28 00:00:18;;;;;;;21.50;12.75;;;10.20;99.90;;;;;;5089576;28;20440;-71
2023/10/28 00:02:44;;;;;;;22.43;13.47;;;10.20;99.90;;;;;;5090889;28;20398;-70
2023/10/28 00:05:10;;;;;;;23.98;13.18;;;10.20;99.90;;;;;;5091210;28;20398;-70
2023/10/28 00:07:36;;;;;;;21.67;13.00;;;10.20;99.90;;;;;;5090942;28;20409;-70
2023/10/28 00:10:02;;;;;;;23.98;13.90;;;10.20;99.90;;;;;;5091233;28;20447;-70
2023/10/28 00:12:28;;;;;;;22.17;13.13;;;10.20;99.90;;;;;;5089505;28;20486;-70
2023/10/28 00:14:54;;;;;;;24.17;13.68;;;10.20;99.90;;;;;;5091182;28;20413;-70
2023/10/28 00:17:20;;;;;;;22.98;13.07;;;10.10;99.90;;;;;;5089216;28;20404;-70
2023/10/28 00:19:46;;;;;;;24.33;13.83;;;10.20;99.90;;;;;;5090658;28;20426;-70
2023/10/28 00:22:12;;;;;;;24.90;14.43;;;10.10;99.90;;;;;;5088201;28;20429;-70
2023/10/28 00:24:41;;;;;;;25.17;14.43;;;10.20;99.90;;;;;;5086040;28;20496;-71
2023/10/28 00:27:08;;;;;;;26.15;14.43;;;10.20;99.90;;;;;;5088755;28;20410;-72
2023/10/28 00:29:34;;;;;;;27.77;14.52;;;10.10;99.90;;;;;;5090059;28;20441;-72
2023/10/28 00:31:59;;;;;;;25.77;14.70;;;10.10;99.90;;;;;;5089465;28;20426;-72
2023/10/28 00:34:25;;;;;;;26.90;15.00;;;10.10;99.90;;;;;;5089443;28;20398;-72
2023/10/28 00:36:51;;;;;;;26.63;13.95;;;10.10;99.90;;;;;;5090589;28;20405;-72
2023/10/28 00:39:16;;;;;;;21.50;13.00;;;10.10;99.90;;;;;;5089731;28;20485;-72
2023/10/28 00:41:43;;;;;;;22.20;13.38;;;10.20;99.90;;;;;;5078465;28;20405;-72
2023/10/28 00:44:09;;;;;;;22.10;12.82;;;10.20;99.90;;;;;;5090532;28;21284;-73
2023/10/28 00:46:36;;;;;;;22.40;12.67;;;10.20;99.90;;;;;;5089900;28;20404;-72
2023/10/28 00:49:02;;;;;;;22.20;12.52;;;10.20;99.90;;;;;;5090156;28;20406;-72
2023/10/28 00:51:28;;;;;;;20.13;12.35;;;10.20;99.90;;;;;;5089594;28;20752;-72
2023/10/28 00:53:54;;;;;;;20.90;12.70;;;10.20;99.90;;;;;;5072167;28;20493;-72
2023/10/28 00:56:20;;;;;;;22.77;12.73;;;10.10;99.90;;;;;;5122723;27;20405;-72
2023/10/28 00:58:46;;;;;;;22.00;12.93;;;10.20;99.90;;;;;;5089848;28;20486;-72
2023/10/28 01:01:13;;;;;;;19.58;12.35;;;10.10;99.90;;;;;;5089269;28;21151;-72
2023/10/28 01:03:43;;;;;;;21.50;13.05;;;10.20;99.90;;;;;;5087964;28;20487;-72
2023/10/28 01:06:09;;;;;;;23.17;13.05;;;10.20;99.90;;;;;;5090120;28;20493;-72
2023/10/28 01:08:36;;;;;;;20.98;13.10;;;10.20;99.90;;;;;;5089818;28;20716;-72
2023/10/28 01:11:02;;;;;;;21.80;13.13;;;10.20;99.90;;;;;;5089828;28;20775;-72
2023/10/28 01:13:28;;;;;;;23.33;13.48;;;10.20;99.90;;;;;;5089356;28;20463;-72
2023/10/28 01:15:53;;;;;;;25.50;14.05;;;10.20;99.90;;;;;;5089691;28;20420;-72
2023/10/28 01:18:20;;;;;;;24.60;14.43;;;10.20;99.90;;;;;;5089509;28;20406;-72
2023/10/28 01:20:46;;;;;;;25.67;15.23;;;10.20;99.90;;;;;;5089560;28;20477;-72
2023/10/28 01:23:12;;;;;;;25.42;15.18;;;10.20;99.90;;;;;;5087966;28;20442;-72
2023/10/28 01:25:37;;;;;;;26.13;14.60;;;10.20;99.90;;;;;;5089090;28;20489;-72
2023/10/28 01:28:03;;;;;;;26.60;15.18;;;10.20;99.90;;;;;;5087628;28;20398;-72
2023/10/28 01:30:29;;;;;;;27.73;15.13;;;10.20;99.90;;;;;;5089682;28;20456;-72
2023/10/28 01:32:55;;;;;;;29.43;15.70;;;10.20;99.90;;;;;;5089294;28;20414;-72
2023/10/28 01:35:20;;;;;;;27.30;15.68;;;10.20;99.90;;;;;;5089020;28;20810;-72
2023/10/28 01:37:46;;;;;;;29.40;15.77;;;10.20;99.90;;;;;;5088857;28;20928;-72
2023/10/28 01:40:14;;;;;;;34.53;16.80;;;10.20;99.90;;;;;;5087414;28;20433;-72
2023/10/28 01:42:41;;;;;;;30.02;16.92;;;10.20;99.90;;;;;;5088707;28;20485;-72
2023/10/28 01:45:09;;;;;;;29.80;16.30;;;10.20;99.90;;;;;;5089271;28;20410;-72
2023/10/28 01:47:36;;;;;;;31.00;16.60;;;10.20;99.90;;;;;;5088915;28;20945;-72
2023/10/28 01:50:01;;;;;;;31.23;16.45;;;10.20;99.90;;;;;;5088638;28;21853;-72
2023/10/28 01:52:28;;;;;;;30.23;16.30;;;10.20;99.90;;;;;;5077069;28;20410;-72
2023/10/28 01:54:53;;;;;;;35.33;17.98;;;10.20;99.90;;;;;;5086804;28;20445;-72
2023/10/28 01:57:20;;;;;;;31.70;17.30;;;10.20;99.90;;;;;;5088285;28;20837;-72
2023/10/28 01:59:45;;;;;;;36.22;18.05;;;10.20;99.90;;;;;;5088131;28;20428;-72
2023/10/28 02:02:11;;;;;;;32.75;17.10;;;10.20;99.90;;;;;;5086287;28;20473;-72
2023/10/28 02:04:37;;;;;;;33.23;17.50;;;10.30;99.90;;;;;;5079642;28;20406;-72
2023/10/28 02:07:06;;;;;;;34.47;18.37;;;10.20;99.90;;;;;;5088296;28;20405;-72
2023/10/28 02:09:35;;;;;;;35.88;17.92;;;10.30;99.90;;;;;;5088792;28;20394;-72
2023/10/28 02:12:02;;;;;;;35.10;18.73;;;10.30;99.90;;;;;;5087947;28;20409;-72
2023/10/28 02:14:28;;;;;;;39.50;20.08;;;10.30;99.90;;;;;;5087138;28;20745;-72
2023/10/28 02:16:55;;;;;;;39.95;19.63;;;10.30;99.90;;;;;;5086880;28;20563;-72
2023/10/28 02:19:21;;;;;;;38.43;19.20;;;10.30;99.90;;;;;;5086810;28;20458;-72
2023/10/28 02:21:47;;;;;;;42.05;20.25;;;10.30;99.90;;;;;;5087654;28;20410;-72
2023/10/28 02:24:14;;;;;;;40.22;20.25;;;10.30;99.90;;;;;;5121179;27;20497;-72
2023/10/28 02:26:39;;;;;;;41.97;21.10;;;10.30;99.90;;;;;;5088053;28;20402;-72
2023/10/28 02:29:06;;;;;;;46.17;21.23;;;10.30;99.90;;;;;;5120742;27;20912;-72
2023/10/28 02:31:32;;;;;;;44.03;21.85;;;10.30;99.90;;;;;;5076895;28;20394;-72
2023/10/28 02:33:57;;;;;;;41.63;21.27;;;10.40;99.90;;;;;;5121240;27;20406;-72
2023/10/28 02:36:25;;;;;;;48.10;22.63;;;10.30;99.90;;;;;;5087842;28;20559;-72
2023/10/28 02:38:50;;;;;;;48.95;23.33;;;10.40;99.90;;;;;;5087781;28;20474;-72
2023/10/28 02:41:16;;;;;;;45.92;22.40;;;10.30;99.90;;;;;;5087715;28;20792;-72
2023/10/28 02:43:42;;;;;;;46.53;22.17;;;10.30;99.90;;;;;;5087989;28;20464;-72
2023/10/28 02:46:08;;;;;;;47.40;22.83;;;10.40;99.90;;;;;;5087537;28;20410;-73
2023/10/28 02:48:34;;;;;;;52.33;24.17;;;10.40;99.90;;;;;;5087752;28;20536;-72
2023/10/28 02:51:06;;;;;;;52.83;24.50;;;10.40;99.90;;;;;;5087781;28;20446;-72
2023/10/28 02:53:33;;;;;;;50.67;23.90;;;10.40;99.90;;;;;;5087176;28;20426;-72
2023/10/28 02:56:05;;;;;;;50.10;23.90;;;10.40;99.90;;;;;;5087600;28;20434;-72
2023/10/28 02:58:31;;;;;;;54.40;24.27;;;10.40;99.90;;;;;;5087603;28;20919;-72
2023/10/28 03:01:06;;;;;;;48.70;23.65;;;10.40;99.90;;;;;;5087956;28;20426;-72
2023/10/28 03:03:32;;;;;;;50.47;24.08;;;10.40;99.90;;;;;;5086098;28;20413;-72
2023/10/28 03:05:57;;;;;;;53.35;24.65;;;10.40;99.90;;;;;;5087860;28;20409;-72
2023/10/28 03:08:23;;;;;;;56.05;25.60;;;10.40;99.90;;;;;;5120477;28;20490;-72
2023/10/28 03:10:49;;;;;;;53.55;24.90;;;10.40;99.90;;;;;;5086619;28;20459;-72
2023/10/28 03:13:15;;;;;;;53.83;25.97;;;10.30;99.90;;;;;;5118284;28;20961;-73
2023/10/28 03:15:40;;;;;;;57.17;25.92;;;10.40;99.90;;;;;;5087683;28;20402;-72
2023/10/28 03:18:06;;;;;;;57.23;26.27;;;10.40;99.90;;;;;;5087591;28;20401;-72
2023/10/28 03:20:31;;;;;;;59.55;27.58;;;10.40;99.90;;;;;;5119630;28;20416;-73
2023/10/28 03:22:57;;;;;;;56.97;27.17;;;10.40;99.90;;;;;;5087000;28;20406;-72
2023/10/28 03:25:23;;;;;;;59.40;27.42;;;10.40;99.90;;;;;;5086045;28;20418;-72
2023/10/28 03:27:49;;;;;;;59.58;27.88;;;10.40;99.90;;;;;;5087515;28;20471;-72
2023/10/28 03:30:15;;;;;;;60.23;28.23;;;10.40;99.90;;;;;;5110000;28;20405;-73
2023/10/28 03:32:40;;;;;;;64.70;29.48;;;10.40;99.90;;;;;;5086993;28;20475;-73
2023/10/28 03:35:06;;;;;;;63.77;28.77;;;10.40;99.90;;;;;;5087134;28;20467;-73
2023/10/28 03:37:32;;;;;;;58.10;28.95;;;10.40;99.90;;;;;;5086085;28;20401;-73
2023/10/28 03:39:59;;;;;;;61.03;28.70;;;10.40;99.90;;;;;;5087119;28;20445;-72
2023/10/28 03:42:25;;;;;;;60.20;28.77;;;10.40;99.90;;;;;;5086723;28;20409;-70
2023/10/28 03:44:50;;;;;;;59.63;27.77;;;10.40;99.90;;;;;;5087038;28;20413;-71
2023/10/28 03:47:16;;;;;;;63.30;29.73;;;10.40;99.90;;;;;;5087270;28;20920;-71
2023/10/28 03:49:42;;;;;;;62.15;30.42;;;10.40;99.90;;;;;;5120581;27;20402;-71
2023/10/28 03:52:07;;;;;;;63.70;30.00;;;10.40;99.90;;;;;;5087039;28;20414;-72
2023/10/28 03:54:33;;;;;;;60.15;30.17;;;10.40;99.90;;;;;;5087003;28;20497;-72
2023/10/28 03:56:59;;;;;;;61.33;30.53;;;10.50;99.90;;;;;;5085365;28;20402;-71
2023/10/28 03:59:24;;;;;;;65.45;30.85;;;10.40;99.90;;;;;;5087282;28;20475;-71
2023/10/28 04:01:50;;;;;;;56.47;29.60;;;10.50;99.90;;;;;;5087041;28;20434;-71
2023/10/28 04:04:16;;;;;;;61.35;30.55;;;10.40;99.90;;;;;;5089354;28;20501;-71
2023/10/28 04:06:42;;;;;;;63.20;31.10;;;10.50;99.90;;;;;;5090940;28;20414;-71
2023/10/28 04:09:08;;;;;;;65.80;30.05;;;10.40;99.90;;;;;;5123419;27;20417;-71
2023/10/28 04:11:33;;;;;;;64.87;30.63;;;10.50;99.90;;;;;;5088917;28;20767;-71
2023/10/28 04:13:59;;;;;;;59.88;30.15;;;10.50;99.90;;;;;;5090585;28;20484;-71
2023/10/28 04:16:25;;;;;;;58.13;29.33;;;10.50;99.90;;;;;;5123449;27;20390;-72
2023/10/28 04:18:52;;;;;;;58.08;30.35;;;10.40;99.90;;;;;;5090384;28;20417;-72
2023/10/28 04:21:17;;;;;;;57.75;30.63;;;10.50;99.90;;;;;;5089734;28;20513;-72
2023/10/28 04:23:43;;;;;;;59.50;30.23;;;10.40;99.90;;;;;;5090437;28;20489;-72
2023/10/28 04:26:09;;;;;;;58.20;29.45;;;10.50;99.90;;;;;;5123244;27;20406;-72
2023/10/28 04:28:34;;;;;;;56.27;29.93;;;10.50;99.90;;;;;;5090160;28;20386;-72
2023/10/28 04:31:00;;;;;;;56.83;29.88;;;10.50;99.90;;;;;;5089741;28;20889;-72
2023/10/28 04:33:26;;;;;;;58.08;30.75;;;10.50;99.90;;;;;;5089340;28;20486;-72
2023/10/28 04:35:55;;;;;;;55.97;30.23;;;10.50;99.90;;;;;;5088883;28;20775;-72
2023/10/28 04:38:21;;;;;;;54.35;30.30;;;10.40;99.90;;;;;;5088631;28;20463;-72
2023/10/28 04:40:49;;;;;;;56.28;29.20;;;10.50;99.90;;;;;;5089823;28;20493;-72
2023/10/28 04:43:14;;;;;;;55.88;29.20;;;10.40;99.90;;;;;;5090768;28;20444;-72
2023/10/28 04:45:44;;;;;;;55.25;29.05;;;10.50;99.90;;;;;;5088674;28;20406;-72
2023/10/28 04:48:10;;;;;;;49.35;27.35;;;10.40;99.90;;;;;;5090447;28;20402;-72
2023/10/28 04:50:36;;;;;;;48.23;27.50;;;10.40;99.90;;;;;;5089568;28;20401;-72
2023/10/28 04:53:02;;;;;;;54.42;28.25;;;10.40;99.90;;;;;;5090389;28;20544;-72
2023/10/28 04:55:28;;;;;;;51.28;28.65;;;10.40;99.90;;;;;;5089332;28;20485;-72
2023/10/28 04:57:54;;;;;;;51.47;27.87;;;10.40;99.90;;;;;;5090072;28;20397;-72
2023/10/28 05:00:19;;;;;;;50.77;28.73;;;10.40;99.90;;;;;;5089834;28;20480;-72
2023/10/28 05:02:45;;;;;;;50.63;27.85;;;10.40;99.90;;;;;;5122885;27;20395;-72
2023/10/28 05:05:11;;;;;;;50.03;26.40;;;10.40;99.90;;;;;;5089576;28;20394;-72
2023/10/28 05:07:36;;;;;;;53.87;28.90;;;10.40;99.90;;;;;;5122482;27;20543;-72
2023/10/28 05:10:03;;;;;;;47.72;27.02;;;10.40;99.90;;;;;;5089471;28;20776;-72
2023/10/28 05:12:28;;;;;;;49.10;27.25;;;10.40;99.90;;;;;;5088652;28;20406;-72
2023/10/28 05:14:54;;;;;;;50.47;27.35;;;10.40;99.90;;;;;;5087982;28;20413;-72
2023/10/28 05:17:20;;;;;;;49.60;26.43;;;10.40;99.90;;;;;;5088427;28;20437;-72
2023/10/28 05:19:46;;;;;;;52.43;27.80;;;10.40;99.90;;;;;;5089279;28;21476;-72
2023/10/28 05:22:13;;;;;;;50.30;27.02;;;10.40;99.90;;;;;;5083137;28;20419;-72
2023/10/28 05:24:38;;;;;;;56.38;28.63;;;10.40;99.90;;;;;;5085375;28;20484;-72
2023/10/28 05:27:04;;;;;;;56.20;28.47;;;10.40;99.90;;;;;;5089180;28;20398;-73
2023/10/28 05:29:30;;;;;;;54.17;27.27;;;10.40;99.90;;;;;;5088987;28;20456;-72
2023/10/28 05:31:56;;;;;;;54.17;27.60;;;10.40;99.90;;;;;;5079270;28;20453;-72
2023/10/28 05:34:23;;;;;;;54.88;28.70;;;10.40;99.90;;;;;;5089090;28;20488;-72
2023/10/28 05:36:50;;;;;;;55.40;28.33;;;10.40;99.90;;;;;;5089404;28;20459;-72
2023/10/28 05:39:16;;;;;;;55.95;28.30;;;10.40;99.90;;;;;;5088529;28;20412;-72
2023/10/28 05:41:42;;;;;;;51.13;27.33;;;10.40;99.90;;;;;;5089089;28;20398;-72
2023/10/28 05:44:07;;;;;;;51.75;27.52;;;10.40;99.90;;;;;;5088696;28;20414;-73
2023/10/28 05:46:33;;;;;;;55.10;28.50;;;10.40;99.90;;;;;;5089097;28;20448;-72
2023/10/28 05:49:00;;;;;;;52.97;27.60;;;10.40;99.90;;;;;;5088621;28;20443;-72
2023/10/28 05:51:25;;;;;;;48.80;27.60;;;10.40;99.90;;;;;;5088912;28;20404;-73
2023/10/28 05:53:51;;;;;;;52.20;27.53;;;10.40;99.90;;;;;;5088664;28;20398;-72
2023/10/28 05:56:17;;;;;;;55.63;28.48;;;10.40;99.90;;;;;;5088879;28;20389;-72
2023/10/28 05:58:43;;;;;;;53.15;28.23;;;10.40;99.90;;;;;;5087936;28;20394;-72
2023/10/28 06:01:09;;;;;;;54.47;28.52;;;10.40;99.90;;;;;;5087433;28;20440;-72
2023/10/28 06:03:37;;;;;;;58.13;28.67;;;10.40;99.90;;;;;;5088429;28;20409;-73
2023/10/28 06:06:05;;;;;;;51.20;27.95;;;10.40;99.90;;;;;;5087390;28;20438;-73
2023/10/28 06:08:31;;;;;;;55.92;27.52;;;10.50;99.90;;;;;;5086910;28;21065;-72
2023/10/28 06:10:57;;;;;;;54.33;28.37;;;10.40;99.90;;;;;;5088424;28;20500;-72
2023/10/28 06:13:23;;;;;;;52.22;28.35;;;10.40;99.90;;;;;;5087297;28;20425;-72
2023/10/28 06:15:48;;;;;;;57.25;27.95;;;10.40;99.90;;;;;;5087562;28;20402;-72
2023/10/28 06:18:14;;;;;;;55.17;29.00;;;10.40;99.90;;;;;;5087188;28;20456;-72
2023/10/28 06:20:40;;;;;;;58.03;28.55;;;10.40;99.90;;;;;;5077778;28;20864;-73
2023/10/28 06:23:06;;;;;;;55.03;27.67;;;10.50;99.90;;;;;;5088088;28;20400;-73
2023/10/28 06:25:34;;;;;;;56.73;27.60;;;10.40;99.90;;;;;;5087126;28;20830;-73
2023/10/28 06:28:01;;;;;;;52.45;27.50;;;10.40;99.90;;;;;;5086429;28;20429;-73
2023/10/28 06:30:27;;;;;;;52.88;27.85;;;10.40;99.90;;;;;;5088410;28;20394;-72
2023/10/28 06:32:52;;;;;;;59.70;27.53;;;10.40;99.90;;;;;;5085142;28;20474;-74
2023/10/28 06:35:18;;;;;;;56.20;27.00;;;10.50;99.90;;;;;;5077366;28;20456;-73
2023/10/28 06:37:46;;;;;;;52.17;26.08;;;10.40;99.90;;;;;;5088004;28;20413;-73
2023/10/28 06:40:12;;;;;;;62.17;27.42;;;10.50;99.90;;;;;;5087599;28;20437;-72
2023/10/28 06:42:38;;;;;;;52.15;25.33;;;10.40;99.90;;;;;;5087872;28;20406;-72
2023/10/28 06:45:07;;;;;;;51.28;24.77;;;10.40;99.90;;;;;;5120819;27;20401;-73
2023/10/28 06:47:36;;;;;;;53.88;25.95;;;10.50;99.90;;;;;;5087889;28;20393;-73
2023/10/28 06:50:06;;;;;;;51.10;25.83;;;10.40;99.90;;;;;;5087701;28;20396;-72
2023/10/28 06:52:32;;;;;;;52.55;24.98;;;10.40;99.90;;;;;;5087649;28;20401;-72
2023/10/28 06:54:59;;;;;;;54.17;25.38;;;10.40;99.90;;;;;;5086799;28;20448;-73
2023/10/28 06:57:26;;;;;;;56.65;26.27;;;10.40;99.90;;;;;;5087370;28;20440;-73
2023/10/28 06:59:52;;;;;;;51.85;25.52;;;10.40;99.90;;;;;;5087642;28;20426;-72
2023/10/28 07:02:18;;;;;;;51.97;25.77;;;10.40;99.90;;;;;;5087691;28;20402;-73
2023/10/28 07:04:43;;;;;;;55.35;26.00;;;10.40;99.90;;;;;;5087768;28;20840;-73
2023/10/28 07:07:14;;;;;;;50.77;25.93;;;10.50;99.90;;;;;;5087622;28;20441;-73
2023/10/28 07:09:40;;;;;;;53.92;25.75;;;10.40;99.90;;;;;;5087912;28;20410;-73
2023/10/28 07:12:06;;;;;;;60.70;26.85;;;10.50;99.90;;;;;;5087769;28;20413;-73
2023/10/28 07:14:31;;;;;;;55.05;26.73;;;10.50;99.90;;;;;;5087108;28;20402;-73
2023/10/28 07:16:59;;;;;;;50.43;25.70;;;10.50;99.90;;;;;;5081732;28;20474;-73
2023/10/28 07:19:24;;;;;;;50.77;25.10;;;10.50;99.90;;;;;;5081575;28;20426;-74
2023/10/28 07:21:50;;;;;;;44.05;23.77;;;10.50;99.90;;;;;;5085036;28;20471;-73
2023/10/28 07:24:15;;;;;;;47.67;24.63;;;10.60;99.90;;;;;;5107335;28;20416;-73
2023/10/28 07:26:42;;;;;;;44.55;23.92;;;10.60;99.90;;;;;;5085007;28;21002;-73
2023/10/28 07:29:08;;;;;;;40.50;22.88;;;10.60;99.90;;;;;;5085131;28;20442;-73
2023/10/28 07:31:38;;;;;;;47.77;23.10;;;10.60;99.90;;;;;;5085626;28;20808;-73
2023/10/28 07:34:07;;;;;;;44.53;23.15;;;10.60;99.90;;;;;;5083360;28;20499;-73
2023/10/28 07:36:33;;;;;;;44.95;23.63;;;10.70;99.90;;;;;;5086078;28;20440;-73
2023/10/28 07:39:01;;;;;;;42.50;23.02;;;10.60;99.90;;;;;;5088119;28;20401;-73
2023/10/28 07:41:29;;;;;;;42.40;22.30;;;10.70;99.90;;;;;;5088505;28;21837;-73
2023/10/28 07:43:56;;;;;;;43.53;23.25;;;10.70;99.90;;;;;;5084354;28;20447;-73
2023/10/28 07:46:23;;;;;;;38.92;22.58;;;10.70;99.90;;;;;;5089933;28;20409;-73
2023/10/28 07:48:49;;;;;;;41.10;23.13;;;10.70;99.90;;;;;;5088463;28;20410;-73
2023/10/28 07:51:17;;;;;;;40.67;22.95;;;10.70;99.90;;;;;;5089123;28;20990;-73
2023/10/28 07:53:44;;;;;;;38.17;22.27;;;10.80;99.90;;;;;;5089378;28;20414;-73
2023/10/28 07:56:09;;;;;;;42.55;23.38;;;10.80;99.90;;;;;;5089883;28;20486;-73
2023/10/28 07:58:36;;;;;;;39.63;22.10;;;10.80;99.90;;;;;;5090755;28;20414;-73
2023/10/28 08:01:02;;;;;;;39.47;21.95;;;10.80;99.90;;;;;;5090009;28;20556;-73
2023/10/28 08:03:29;;;;;;;38.20;21.15;;;10.80;99.90;;;;;;5091163;28;20425;-73
2023/10/28 08:05:55;;;;;;;31.08;17.85;;;10.80;99.90;;;;;;5091320;28;20420;-73
2023/10/28 08:08:21;;;;;;;25.83;15.53;;;10.80;99.90;;;;;;5091073;28;20397;-73
2023/10/28 08:10:48;;;;;;;22.90;13.75;;;10.80;99.90;;;;;;5089503;28;20414;-71
2023/10/28 08:13:14;;;;;;;19.83;13.00;;;10.80;99.90;;;;;;5090745;28;20406;-71
2023/10/28 08:15:39;;;;;;;22.00;13.10;;;10.80;99.90;;;;;;5086091;28;22022;-71
2023/10/28 08:18:05;;;;;;;18.10;12.07;;;10.80;99.90;;;;;;5086569;28;20505;-72
2023/10/28 08:20:30;;;;;;;18.50;11.37;;;10.80;99.90;;;;;;5080135;28;20489;-72
2023/10/28 08:22:56;;;;;;;16.77;10.73;;;10.80;99.90;;;;;;5086769;28;20570;-72
2023/10/28 08:25:22;;;;;;;13.82;10.63;;;10.80;99.90;;;;;;5089875;28;20410;-72
2023/10/28 08:27:48;;;;;;;14.93;10.33;;;10.80;99.90;;;;;;5088878;28;20437;-73
2023/10/28 08:30:17;;;;;;;15.73;10.23;;;10.90;99.90;;;;;;5121010;27;20916;-73
2023/10/28 08:32:44;;;;;;;16.93;10.60;;;10.90;99.90;;;;;;5087113;28;20433;-73
2023/10/28 08:35:09;;;;;;;15.48;10.52;;;11.00;99.90;;;;;;5090224;28;20405;-72
2023/10/28 08:37:35;;;;;;;15.00;10.00;;;10.90;99.90;;;;;;5087548;28;20409;-73
2023/10/28 08:40:03;;;;;;;14.47;10.00;;;11.00;99.90;;;;;;5088306;28;20428;-73
2023/10/28 08:42:30;;;;;;;14.23;9.80;;;11.00;99.90;;;;;;5092216;28;20414;-73
2023/10/28 08:44:58;;;;;;;14.52;9.75;;;11.10;99.90;;;;;;5090066;28;21129;-72
2023/10/28 08:47:26;;;;;;;13.27;9.38;;;11.10;99.90;;;;;;5089650;28;20430;-73
2023/10/28 08:49:54;;;;;;;12.52;9.13;;;11.10;99.90;;;;;;5088739;28;20761;-73
2023/10/28 08:52:23;;;;;;;11.68;8.30;;;11.20;99.90;;;;;;5087991;28;20418;-73
2023/10/28 08:54:49;;;;;;;11.85;8.50;;;11.20;99.90;;;;;;5084057;28;20441;-73
2023/10/28 08:57:17;;;;;;;12.03;8.23;;;11.30;99.90;;;;;;5087763;28;20807;-73
2023/10/28 08:59:43;;;;;;;11.57;7.97;;;11.40;99.90;;;;;;5087383;28;20439;-73
2023/10/28 09:02:11;;;;;;;10.95;8.00;;;11.50;99.90;;;;;;5086731;28;20398;-73
2023/10/28 09:04:36;;;;;;;12.77;8.00;;;11.60;99.90;;;;;;5081780;28;20410;-73
2023/10/28 09:07:04;;;;;;;13.33;8.17;;;11.70;99.90;;;;;;5086763;28;20417;-73
2023/10/28 09:09:30;;;;;;;11.93;7.57;;;11.70;99.50;;;;;;5081585;28;20404;-73
2023/10/28 09:12:00;;;;;;;11.52;7.38;;;11.70;98.90;;;;;;5088114;28;20791;-73
2023/10/28 09:14:25;;;;;;;10.40;7.07;;;11.70;98.60;;;;;;5089066;28;20911;-73
2023/10/28 09:16:51;;;;;;;10.25;6.80;;;11.70;98.30;;;;;;5088942;28;20410;-73
2023/10/28 09:19:20;;;;;;;9.50;6.80;;;11.70;98.00;;;;;;5089350;28;20444;-73
2023/10/28 09:21:50;;;;;;;11.10;6.60;;;11.60;97.80;;;;;;5089613;28;20410;-73
2023/10/28 09:24:16;;;;;;;10.45;6.65;;;11.60;97.50;;;;;;5090152;28;20497;-73
2023/10/28 09:26:42;;;;;;;10.07;6.77;;;11.60;97.50;;;;;;5083112;28;20498;-73
2023/10/28 09:29:08;;;;;;;12.43;7.37;;;11.60;97.70;;;;;;5088392;28;20529;-73
2023/10/28 09:31:34;;;;;;;10.73;7.32;;;11.60;97.70;;;;;;5088365;28;20429;-73
2023/10/28 09:34:00;;;;;;;13.43;6.93;;;11.70;97.60;;;;;;5089292;28;20437;-73
2023/10/28 09:36:28;;;;;;;11.55;6.97;;;11.70;97.50;;;;;;5087910;28;20453;-73
2023/10/28 09:38:55;;;;;;;9.73;6.55;;;11.70;97.50;;;;;;5087546;28;20410;-73
2023/10/28 09:41:21;;;;;;;9.50;6.15;;;11.70;97.50;;;;;;5086537;28;20458;-73
2023/10/28 09:43:47;;;;;;;9.73;6.05;;;11.70;97.20;;;;;;5082867;28;20871;-74
2023/10/28 09:46:18;;;;;;;9.60;5.72;;;11.70;96.90;;;;;;5098316;28;20445;-74
2023/10/28 09:48:48;;;;;;;10.35;5.88;;;11.70;96.60;;;;;;5086121;28;20417;-73
2023/10/28 09:51:20;;;;;;;11.02;6.10;;;11.70;96.50;;;;;;5082821;28;20426;-72
2023/10/28 09:53:52;;;;;;;11.18;5.50;;;11.70;96.60;;;;;;5089137;28;20428;-72
2023/10/28 09:56:19;;;;;;;8.95;5.30;;;11.70;96.90;;;;;;5079052;28;20430;-72
2023/10/28 09:59:02;;;;;;;10.15;5.10;;;11.80;97.50;;;;;;5087063;28;20398;-71
2023/10/28 10:02:11;;;;;;;8.88;4.65;;;12.00;98.20;;;;;;5084717;28;20516;-72
2023/10/28 10:04:56;;;;;;;9.15;4.93;;;12.20;96.90;;;;;;5082333;28;20409;-72
2023/10/28 10:07:22;;;;;;;9.47;5.40;;;12.30;96.30;;;;;;5086725;28;20402;-72
2023/10/28 10:09:47;;;;;;;10.40;5.20;;;12.30;95.50;;;;;;5085463;28;20459;-72
2023/10/28 10:12:13;;;;;;;9.67;5.43;;;12.20;95.10;;;;;;5081890;28;20409;-72
2023/10/28 10:14:47;;;;;;;9.43;5.90;;;12.20;94.90;;;;;;5087959;28;20406;-72
2023/10/28 10:17:31;;;;;;;9.63;5.53;;;12.20;94.60;;;;;;5087523;28;20421;-73
2023/10/28 10:20:04;;;;;;;10.02;5.72;;;12.20;94.80;;;;;;5086446;28;20429;-73
2023/10/28 10:22:31;;;;;;;10.55;5.68;;;12.10;95.10;;;;;;5087118;28;20531;-73
2023/10/28 10:24:57;;;;;;;10.25;5.15;;;12.20;95.20;;;;;;5088469;28;20406;-73
2023/10/28 10:27:34;;;;;;;8.95;5.28;;;12.10;95.10;;;;;;5088249;28;20496;-73
2023/10/28 10:30:07;;;;;;;9.75;4.88;;;12.20;95.20;;;;;;5081227;28;20462;-73
2023/10/28 10:33:00;;;;;;;8.77;5.20;;;12.20;94.90;;;;;;5075473;28;20439;-73
2023/10/28 10:35:28;;;;;;;7.95;4.90;;;12.20;94.80;;;;;;5081380;28;20468;-73
2023/10/28 10:38:04;;;;;;;8.45;4.70;;;12.20;94.90;;;;;;5084911;28;20807;-73
2023/10/28 10:40:36;;;;;;;7.87;4.90;;;12.10;94.70;;;;;;5081158;28;20430;-73
2023/10/28 10:43:11;;;;;;;8.60;5.00;;;12.10;94.50;;;;;;5082413;28;21179;-73
2023/10/28 10:45:36;;;;;;;9.45;5.47;;;12.10;94.50;;;;;;5081573;28;20414;-73
2023/10/28 10:48:08;;;;;;;8.48;4.88;;;12.10;94.60;;;;;;5086916;28;20768;-73
2023/10/28 10:50:37;;;;;;;9.63;4.70;;;12.00;94.40;;;;;;5085719;28;20402;-73
2023/10/28 10:53:03;;;;;;;9.38;4.45;;;12.00;94.90;;;;;;5087411;28;20408;-73
2023/10/28 10:55:30;;;;;;;8.05;4.85;;;12.00;94.60;;;;;;5083439;28;20768;-73
2023/10/28 10:57:56;;;;;;;9.70;4.70;;;12.00;94.90;;;;;;5086299;28;20409;-74
2023/10/28 11:00:23;;;;;;;10.40;5.10;;;12.00;95.00;;;;;;5085815;28;20554;-74
2023/10/28 11:02:49;;;;;;;9.73;4.90;;;12.00;95.10;;;;;;5087013;28;20768;-74
2023/10/28 11:05:15;;;;;;;7.82;4.82;;;12.10;95.20;;;;;;5082087;28;20492;-74
2023/10/28 11:07:45;;;;;;;6.83;4.53;;;12.10;95.40;;;;;;5086627;28;20745;-74
2023/10/28 11:10:11;;;;;;;9.05;4.50;;;12.10;95.40;;;;;;5086484;28;20437;-73
2023/10/28 11:12:39;;;;;;;12.63;5.00;;;12.10;95.50;;;;;;5084853;28;20398;-74
2023/10/28 11:15:06;;;;;;;9.43;4.70;;;12.20;95.20;;;;;;5087905;28;20413;-73
2023/10/28 11:17:32;;;;;;;7.88;4.28;;;12.20;95.10;;;;;;5090674;28;20459;-74
2023/10/28 11:20:03;;;;;;;7.97;4.75;;;12.20;95.00;;;;;;5089624;28;20900;-73
2023/10/28 11:22:29;;;;;;;7.15;4.38;;;12.30;94.80;;;;;;5084984;28;20410;-74
2023/10/28 11:25:00;;;;;;;8.35;4.32;;;12.20;94.70;;;;;;5081908;28;20407;-73
2023/10/28 11:27:27;;;;;;;9.48;4.43;;;12.30;95.00;;;;;;5089010;28;20432;-74
2023/10/28 11:29:53;;;;;;;10.05;4.50;;;12.30;95.40;;;;;;5090280;28;20405;-74
2023/10/28 11:32:19;;;;;;;8.50;4.82;;;12.40;95.40;;;;;;5092905;28;20441;-73
2023/10/28 11:34:46;;;;;;;11.13;5.10;;;12.40;95.10;;;;;;5090336;28;20409;-74
2023/10/28 11:37:12;;;;;;;9.23;4.87;;;12.40;95.10;;;;;;5090070;28;20425;-74
2023/10/28 11:39:39;;;;;;;10.40;5.43;;;12.40;95.00;;;;;;5086688;28;20522;-75
2023/10/28 11:42:18;;;;;;;10.60;5.28;;;12.40;94.80;;;;;;5083255;28;20409;-75
2023/10/28 11:44:51;;;;;;;11.10;5.25;;;12.40;94.90;;;;;;5090126;28;20417;-74
2023/10/28 11:47:19;;;;;;;9.60;5.23;;;12.40;95.00;;;;;;5090955;28;20402;-74
2023/10/28 11:49:47;;;;;;;10.45;5.47;;;12.40;95.10;;;;;;5079265;28;21451;-75
2023/10/28 11:52:13;;;;;;;8.90;5.50;;;12.30;95.20;;;;;;5062177;28;20445;-74
2023/10/28 11:54:40;;;;;;;9.85;5.60;;;12.40;95.50;;;;;;5089995;28;20426;-74
2023/10/28 11:57:05;;;;;;;9.70;5.18;;;12.40;95.70;;;;;;5090745;28;20402;-75
2023/10/28 11:59:31;;;;;;;8.52;5.22;;;12.50;95.80;;;;;;5089541;28;20402;-74
2023/10/28 12:01:58;;;;;;;9.50;5.00;;;12.60;95.70;;;;;;5090453;28;20915;-75
2023/10/28 12:04:25;;;;;;;8.27;4.70;;;12.60;95.70;;;;;;5091061;28;20501;-74
2023/10/28 12:06:51;;;;;;;8.85;4.82;;;12.70;95.50;;;;;;5086502;28;20454;-76
2023/10/28 12:09:17;;;;;;;7.90;4.40;;;12.70;95.50;;;;;;5090612;28;20504;-74
2023/10/28 12:11:46;;;;;;;7.78;4.28;;;12.80;95.10;;;;;;5087096;28;20497;-74
2023/10/28 12:14:11;;;;;;;7.47;4.17;;;12.80;94.90;;;;;;5089135;28;20505;-74
2023/10/28 12:16:40;;;;;;;8.30;4.18;;;12.90;94.50;;;;;;5091210;28;20493;-74
2023/10/28 12:19:09;;;;;;;8.37;4.40;;;12.90;94.30;;;;;;5085628;28;20559;-74
2023/10/28 12:21:35;;;;;;;7.85;4.50;;;12.90;94.20;;;;;;5086433;28;20422;-74
2023/10/28 12:24:03;;;;;;;9.98;4.80;;;12.90;93.80;;;;;;5090220;28;20414;-74
2023/10/28 12:26:29;;;;;;;10.30;4.90;;;12.90;93.90;;;;;;5090757;28;20414;-74
2023/10/28 12:28:55;;;;;;;9.07;4.70;;;12.90;93.60;;;;;;5089346;28;20459;-74